createdAt,value
2018-06-30T00:00:50.648Z,12.77
2018-06-30T00:03:19.204Z,6.70
2018-06-30T00:05:47.715Z,6.10
2018-06-30T00:08:16.336Z,5.53
2018-06-30T00:10:44.876Z,5.97
2018-06-30T00:13:13.379Z,9.20
2018-06-30T00:15:41.970Z,5.27
2018-06-30T00:18:10.514Z,8.23
2018-06-30T00:20:39.398Z,7.57
2018-06-30T00:23:08.364Z,7.60
2018-06-30T00:25:36.908Z,7.40
2018-06-30T00:28:05.618Z,6.00
2018-06-30T00:30:34.094Z,9.60
2018-06-30T00:33:02.653Z,8.40
2018-06-30T00:35:31.335Z,5.83
2018-06-30T00:37:59.975Z,11.20
2018-06-30T00:40:28.698Z,11.73
2018-06-30T00:42:57.182Z,5.30
2018-06-30T00:45:25.866Z,8.47
2018-06-30T00:47:54.365Z,8.40
2018-06-30T00:50:22.926Z,5.53
2018-06-30T00:52:51.529Z,5.80
2018-06-30T00:55:20.313Z,7.13
2018-06-30T00:57:49.082Z,8.13
2018-06-30T01:00:17.717Z,6.77
2018-06-30T01:02:46.463Z,9.53
2018-06-30T01:05:14.944Z,8.63
2018-06-30T01:07:43.440Z,8.07
2018-06-30T01:10:12.008Z,7.60
2018-06-30T01:12:40.648Z,6.57
2018-06-30T01:15:09.107Z,8.00
2018-06-30T01:17:37.862Z,8.67
2018-06-30T01:20:06.760Z,8.60
2018-06-30T01:22:35.250Z,12.80
2018-06-30T01:25:03.799Z,8.03
2018-06-30T01:27:32.332Z,6.13
2018-06-30T01:30:01.194Z,5.33
2018-06-30T01:32:29.946Z,7.73
2018-06-30T01:34:58.576Z,7.50
2018-06-30T01:37:27.228Z,7.50
2018-06-30T01:39:56.229Z,5.53
2018-06-30T01:42:24.588Z,6.33
2018-06-30T01:44:53.111Z,6.53
2018-06-30T01:47:21.854Z,11.10
2018-06-30T01:49:50.671Z,7.83
2018-06-30T01:52:19.227Z,9.33
2018-06-30T01:54:47.960Z,7.80
2018-06-30T01:57:16.954Z,8.53
2018-06-30T01:59:45.495Z,5.70
2018-06-30T02:02:13.959Z,8.37
2018-06-30T02:04:42.661Z,6.90
2018-06-30T02:07:11.177Z,8.53
2018-06-30T02:09:39.764Z,6.50
2018-06-30T02:12:08.532Z,10.50
2018-06-30T02:14:37.207Z,8.63
2018-06-30T02:17:05.410Z,6.93
2018-06-30T02:19:34.071Z,9.30
2018-06-30T02:22:02.783Z,9.47
2018-06-30T02:24:31.285Z,9.93
2018-06-30T02:27:00.013Z,10.23
2018-06-30T02:29:28.674Z,7.10
2018-06-30T02:31:57.234Z,5.53
2018-06-30T02:34:25.812Z,6.77
2018-06-30T02:36:54.589Z,7.93
2018-06-30T02:39:23.281Z,7.23
2018-06-30T02:41:51.778Z,9.63
2018-06-30T02:44:20.612Z,8.03
2018-06-30T02:46:48.751Z,7.33
2018-06-30T02:49:17.223Z,5.97
2018-06-30T02:51:45.749Z,8.70
2018-06-30T02:54:14.312Z,8.73
2018-06-30T02:56:42.870Z,8.90
2018-06-30T02:59:11.471Z,9.63
2018-06-30T03:01:40.167Z,7.53
2018-06-30T03:04:08.636Z,9.57
2018-06-30T03:06:37.269Z,7.80
2018-06-30T03:09:08.356Z,9.07
2018-06-30T03:11:36.856Z,9.80
2018-06-30T03:14:05.800Z,8.10
2018-06-30T03:16:34.306Z,9.60
2018-06-30T03:19:02.807Z,13.90
2018-06-30T03:21:31.487Z,9.47
2018-06-30T03:23:59.955Z,8.47
2018-06-30T03:26:28.441Z,12.47
2018-06-30T03:28:56.955Z,9.63
2018-06-30T03:31:25.661Z,8.83
2018-06-30T03:33:54.338Z,8.63
2018-06-30T03:36:22.914Z,11.13
2018-06-30T03:38:51.462Z,12.10
2018-06-30T03:41:20.430Z,10.70
2018-06-30T03:43:48.991Z,8.90
2018-06-30T03:46:17.495Z,6.43
2018-06-30T03:48:46.212Z,8.90
2018-06-30T03:51:14.804Z,6.73
2018-06-30T03:53:43.270Z,8.53
2018-06-30T03:56:11.787Z,7.80
2018-06-30T03:58:40.547Z,7.97
2018-06-30T04:01:09.178Z,9.83
2018-06-30T04:03:37.706Z,10.13
2018-06-30T04:06:06.841Z,9.27
2018-06-30T04:08:35.188Z,9.83
2018-06-30T04:11:03.699Z,11.33
2018-06-30T04:13:32.195Z,6.90
2018-06-30T04:16:00.881Z,8.93
2018-06-30T04:18:29.498Z,9.50
2018-06-30T04:20:58.071Z,8.63
2018-06-30T04:23:27.063Z,8.90
2018-06-30T04:25:55.592Z,7.60
2018-06-30T04:28:24.128Z,9.00
2018-06-30T04:30:52.842Z,8.17
2018-06-30T04:33:21.373Z,7.07
2018-06-30T04:35:50.147Z,9.07
2018-06-30T04:38:18.806Z,8.60
2018-06-30T04:40:47.313Z,8.73
2018-06-30T04:43:16.063Z,10.40
2018-06-30T04:45:44.573Z,9.53
2018-06-30T04:48:12.894Z,8.30
2018-06-30T04:50:41.564Z,12.30
2018-06-30T04:53:10.163Z,12.37
2018-06-30T04:55:39.175Z,7.70
2018-06-30T04:58:07.852Z,7.43
2018-06-30T05:00:36.572Z,7.33
2018-06-30T05:03:05.394Z,8.00
2018-06-30T05:05:33.908Z,6.73
2018-06-30T05:08:02.408Z,8.90
2018-06-30T05:10:30.938Z,9.43
2018-06-30T05:12:59.439Z,5.97
2018-06-30T05:15:28.152Z,6.60
2018-06-30T05:17:56.752Z,6.37
2018-06-30T05:20:25.266Z,7.43
2018-06-30T05:22:53.900Z,8.17
2018-06-30T05:25:22.551Z,8.23
2018-06-30T05:27:51.533Z,5.77
2018-06-30T05:30:20.194Z,8.40
2018-06-30T05:32:49.056Z,6.03
2018-06-30T05:35:17.731Z,7.47
2018-06-30T05:37:46.223Z,9.07
2018-06-30T05:40:14.739Z,6.80
2018-06-30T05:42:43.250Z,7.30
2018-06-30T05:45:12.102Z,9.27
2018-06-30T05:47:40.820Z,7.23
2018-06-30T05:50:09.590Z,8.00
2018-06-30T05:52:38.098Z,7.70
2018-06-30T05:55:06.707Z,10.90
2018-06-30T05:57:35.526Z,11.07
2018-06-30T06:00:04.386Z,6.87
2018-06-30T06:02:32.909Z,10.73
2018-06-30T06:05:01.468Z,10.27
2018-06-30T06:07:30.278Z,6.23
2018-06-30T06:09:58.858Z,5.27
2018-06-30T06:12:27.552Z,8.70
2018-06-30T06:14:56.164Z,8.83
2018-06-30T06:17:24.933Z,5.40
2018-06-30T06:19:53.552Z,8.03
2018-06-30T06:22:22.463Z,6.73
2018-06-30T06:24:51.082Z,6.40
2018-06-30T06:27:20.047Z,8.53
2018-06-30T06:29:48.833Z,6.23
2018-06-30T06:32:17.680Z,5.07
2018-06-30T06:34:46.353Z,6.13
2018-06-30T06:37:15.142Z,5.77
2018-06-30T06:39:43.749Z,4.43
2018-06-30T06:42:12.712Z,6.33
2018-06-30T06:44:41.324Z,8.17
2018-06-30T06:47:10.083Z,7.30
2018-06-30T06:49:38.647Z,4.90
2018-06-30T06:52:07.178Z,6.80
2018-06-30T06:54:35.690Z,7.00
2018-06-30T06:57:04.672Z,6.80
2018-06-30T06:59:33.296Z,8.57
2018-06-30T07:02:01.841Z,9.37
2018-06-30T07:04:30.616Z,5.37
2018-06-30T07:06:59.215Z,4.60
2018-06-30T07:09:27.921Z,6.73
2018-06-30T07:11:56.545Z,6.17
2018-06-30T07:14:25.368Z,7.23
2018-06-30T07:16:53.888Z,11.50
2018-06-30T07:19:22.976Z,7.30
2018-06-30T07:21:51.677Z,9.10
2018-06-30T07:24:20.216Z,5.93
2018-06-30T07:26:48.792Z,7.23
2018-06-30T07:29:17.339Z,8.00
2018-06-30T07:31:45.924Z,5.67
2018-06-30T07:34:14.542Z,5.73
2018-06-30T07:36:43.055Z,4.97
2018-06-30T07:39:11.573Z,9.43
2018-06-30T07:41:41.446Z,6.90
2018-06-30T07:44:10.269Z,5.70
2018-06-30T07:46:38.945Z,5.23
2018-06-30T07:49:07.733Z,5.70
2018-06-30T07:51:36.368Z,8.30
2018-06-30T07:54:04.889Z,6.40
2018-06-30T07:59:16.385Z,8.50
2018-06-30T08:01:45.354Z,4.93
2018-06-30T08:04:14.161Z,5.50
2018-06-30T08:06:42.556Z,5.80
2018-06-30T08:09:12.515Z,3.93
2018-06-30T08:11:42.052Z,6.70
2018-06-30T08:14:10.870Z,5.97
2018-06-30T08:16:39.400Z,5.90
2018-06-30T08:19:08.526Z,3.93
2018-06-30T08:21:37.004Z,3.63
2018-06-30T08:24:05.660Z,4.13
2018-06-30T08:26:34.240Z,5.23
2018-06-30T08:29:03.020Z,3.80
2018-06-30T08:31:31.550Z,3.23
2018-06-30T08:34:00.092Z,4.50
2018-06-30T08:36:28.935Z,4.63
2018-06-30T08:38:57.580Z,2.67
2018-06-30T08:41:26.111Z,3.70
2018-06-30T08:43:54.896Z,4.67
2018-06-30T08:46:23.450Z,6.57
2018-06-30T08:48:51.850Z,4.50
2018-06-30T08:51:20.536Z,4.73
2018-06-30T08:53:49.504Z,2.90
2018-06-30T08:56:17.908Z,2.90
2018-06-30T08:58:46.690Z,3.97
2018-06-30T09:01:15.657Z,5.17
2018-06-30T09:03:44.202Z,3.43
2018-06-30T09:06:12.748Z,4.00
2018-06-30T09:08:41.423Z,2.57
2018-06-30T09:11:09.979Z,4.07
2018-06-30T09:13:38.592Z,2.80
2018-06-30T09:16:07.204Z,3.00
2018-06-30T09:18:35.872Z,2.20
2018-06-30T09:21:04.668Z,3.03
2018-06-30T09:23:33.245Z,3.13
2018-06-30T09:26:01.902Z,2.93
2018-06-30T09:28:31.027Z,4.63
2018-06-30T09:30:59.639Z,2.73
2018-06-30T09:33:28.428Z,3.07
2018-06-30T09:35:57.373Z,4.47
2018-06-30T09:38:25.902Z,7.37
2018-06-30T09:40:54.570Z,3.50
2018-06-30T09:43:23.195Z,3.27
2018-06-30T09:45:52.004Z,9.53
2018-06-30T09:48:20.718Z,4.67
2018-06-30T09:50:49.403Z,3.10
2018-06-30T09:53:18.044Z,4.03
2018-06-30T09:55:46.632Z,2.90
2018-06-30T09:58:15.375Z,2.67
2018-06-30T10:00:49.280Z,2.42
2018-06-30T10:03:17.992Z,4.78
2018-06-30T10:05:46.632Z,3.37
2018-06-30T10:08:15.523Z,3.58
2018-06-30T10:10:44.167Z,1.42
2018-06-30T10:13:12.835Z,3.75
2018-06-30T10:15:41.383Z,2.55
2018-06-30T10:18:10.322Z,2.37
2018-06-30T10:20:38.849Z,2.00
2018-06-30T10:23:07.744Z,3.15
2018-06-30T10:25:36.661Z,1.87
2018-06-30T10:28:05.707Z,2.65
2018-06-30T10:30:34.263Z,1.70
2018-06-30T10:33:02.877Z,3.95
2018-06-30T10:35:31.642Z,2.50
2018-06-30T10:38:00.206Z,4.90
2018-06-30T10:40:29.108Z,3.65
2018-06-30T10:42:57.835Z,3.47
2018-06-30T10:45:26.833Z,2.90
2018-06-30T10:47:55.382Z,3.10
2018-06-30T10:50:24.053Z,1.37
2018-06-30T10:52:52.639Z,1.77
2018-06-30T10:55:21.179Z,1.32
2018-06-30T10:57:49.899Z,1.72
2018-06-30T11:00:18.571Z,6.37
2018-06-30T11:02:47.058Z,4.15
2018-06-30T11:05:15.791Z,2.17
2018-06-30T11:07:44.387Z,3.08
2018-06-30T11:10:13.224Z,1.72
2018-06-30T11:12:41.853Z,2.65
2018-06-30T11:15:10.323Z,2.00
2018-06-30T11:17:39.153Z,1.98
2018-06-30T11:20:07.906Z,1.82
2018-06-30T11:22:36.619Z,1.30
2018-06-30T11:25:05.573Z,3.17
2018-06-30T11:27:34.138Z,2.22
2018-06-30T11:30:03.174Z,2.50
2018-06-30T11:32:31.723Z,3.12
2018-06-30T11:35:00.606Z,3.27
2018-06-30T11:37:29.295Z,3.40
2018-06-30T11:39:57.647Z,2.15
2018-06-30T11:42:26.392Z,2.37
2018-06-30T11:44:54.984Z,1.57
2018-06-30T11:47:23.806Z,2.87
2018-06-30T11:49:53.071Z,2.77
2018-06-30T11:52:21.827Z,1.47
2018-06-30T11:54:50.751Z,0.80
2018-06-30T11:57:19.296Z,1.07
2018-06-30T11:59:48.099Z,2.65
2018-06-30T12:02:16.303Z,2.10
2018-06-30T12:04:45.112Z,0.88
2018-06-30T12:07:13.868Z,0.80
2018-06-30T12:09:42.750Z,1.25
2018-06-30T12:12:11.825Z,1.77
2018-06-30T12:14:40.299Z,1.02
2018-06-30T12:17:09.180Z,2.10
2018-06-30T12:19:37.700Z,3.65
2018-06-30T12:22:06.255Z,4.22
2018-06-30T12:24:35.560Z,0.57
2018-06-30T12:27:03.769Z,4.87
2018-06-30T12:29:32.430Z,0.40
2018-06-30T12:32:01.152Z,1.62
2018-06-30T12:34:29.825Z,1.20
2018-06-30T12:36:58.552Z,1.30
2018-06-30T12:39:27.375Z,2.20
2018-06-30T12:41:56.077Z,1.80
2018-06-30T12:44:24.885Z,1.10
2018-06-30T12:46:53.673Z,2.30
2018-06-30T12:49:22.239Z,0.40
2018-06-30T12:51:51.004Z,0.90
2018-06-30T12:54:20.769Z,1.72
2018-06-30T12:56:49.654Z,1.10
2018-06-30T12:59:18.194Z,1.80
2018-06-30T13:01:47.063Z,1.30
2018-06-30T13:04:15.609Z,1.92
2018-06-30T13:06:44.271Z,2.70
2018-06-30T13:09:13.564Z,0.55
2018-06-30T13:11:42.611Z,1.32
2018-06-30T13:14:11.288Z,0.50
2018-06-30T13:16:39.918Z,1.45
2018-06-30T13:19:09.594Z,1.92
2018-06-30T13:21:38.249Z,2.92
2018-06-30T13:24:07.096Z,2.45
2018-06-30T13:26:35.631Z,0.80
2018-06-30T13:29:04.448Z,2.05
2018-06-30T13:31:33.227Z,0.90
2018-06-30T13:34:01.799Z,0.72
2018-06-30T13:36:30.304Z,0.50
2018-06-30T13:38:58.930Z,0.88
2018-06-30T13:41:27.473Z,1.42
2018-06-30T13:43:56.380Z,1.47
2018-06-30T13:46:25.009Z,1.37
2018-06-30T13:48:53.706Z,1.90
2018-06-30T13:51:22.438Z,1.00
2018-06-30T13:53:51.452Z,0.75
2018-06-30T13:56:19.993Z,3.05
2018-06-30T13:58:48.661Z,1.85
2018-06-30T14:01:17.369Z,1.25
2018-06-30T14:03:48.711Z,7.42
2018-06-30T14:06:17.500Z,1.87
2018-06-30T14:08:46.318Z,2.15
2018-06-30T14:11:15.206Z,6.67
2018-06-30T14:13:43.823Z,2.80
2018-06-30T14:16:12.596Z,0.30
2018-06-30T14:18:41.408Z,1.75
2018-06-30T14:21:10.415Z,1.32
2018-06-30T14:23:38.896Z,2.22
2018-06-30T14:26:07.448Z,1.87
2018-06-30T14:28:36.264Z,0.65
2018-06-30T14:31:05.184Z,1.90
2018-06-30T14:33:34.075Z,0.37
2018-06-30T14:36:02.751Z,4.10
2018-06-30T14:38:31.452Z,1.90
2018-06-30T14:40:59.839Z,0.78
2018-06-30T14:43:28.403Z,1.20
2018-06-30T14:45:56.949Z,3.10
2018-06-30T14:48:25.550Z,4.17
2018-06-30T14:50:54.245Z,1.00
2018-06-30T14:53:23.029Z,3.62
2018-06-30T14:55:51.566Z,0.47
2018-06-30T14:58:20.172Z,1.40
2018-06-30T15:00:48.796Z,0.75
2018-06-30T15:03:17.317Z,3.10
2018-06-30T15:05:46.014Z,1.27
2018-06-30T15:08:15.066Z,2.83
2018-06-30T15:10:43.826Z,0.60
2018-06-30T15:13:12.463Z,0.78
2018-06-30T15:15:41.763Z,1.30
2018-06-30T15:18:10.414Z,1.22
2018-06-30T15:20:38.772Z,4.15
2018-06-30T15:23:07.355Z,2.47
2018-06-30T15:25:36.085Z,2.37
2018-06-30T15:28:04.615Z,1.52
2018-06-30T15:30:33.158Z,1.10
2018-06-30T15:33:01.680Z,1.07
2018-06-30T15:35:30.515Z,2.17
2018-06-30T15:37:59.144Z,2.40
2018-06-30T15:40:27.668Z,1.85
2018-06-30T15:42:56.455Z,0.70
2018-06-30T15:45:25.077Z,1.55
2018-06-30T15:47:53.592Z,6.95
2018-06-30T15:50:22.129Z,2.70
2018-06-30T15:52:50.676Z,0.50
2018-06-30T15:55:19.257Z,0.82
2018-06-30T15:57:48.203Z,0.55
2018-06-30T16:00:17.052Z,0.60
2018-06-30T16:02:45.584Z,1.80
2018-06-30T16:05:14.287Z,1.45
2018-06-30T16:07:42.819Z,1.42
2018-06-30T16:10:11.590Z,1.62
2018-06-30T16:12:40.415Z,2.15
2018-06-30T16:15:09.156Z,0.85
2018-06-30T16:17:37.863Z,1.85
2018-06-30T16:20:06.207Z,1.20
2018-06-30T16:22:34.956Z,0.85
2018-06-30T16:25:03.925Z,1.30
2018-06-30T16:27:32.791Z,1.30
2018-06-30T16:30:01.006Z,2.27
2018-06-30T16:32:29.604Z,0.93
2018-06-30T16:34:58.129Z,0.98
2018-06-30T16:37:26.666Z,0.80
2018-06-30T16:39:55.286Z,0.95
2018-06-30T16:42:23.945Z,0.70
2018-06-30T16:44:52.717Z,1.17
2018-06-30T16:47:21.226Z,2.90
2018-06-30T16:49:49.989Z,1.87
2018-06-30T16:52:18.646Z,1.62
2018-06-30T16:54:47.047Z,2.02
2018-06-30T16:57:16.015Z,2.80
2018-06-30T16:59:44.925Z,5.15
2018-06-30T17:02:13.704Z,5.78
2018-06-30T17:04:42.295Z,2.70
2018-06-30T17:07:11.017Z,0.70
2018-06-30T17:09:39.827Z,0.93
2018-06-30T17:12:08.623Z,0.82
2018-06-30T17:14:37.132Z,0.93
2018-06-30T17:17:06.050Z,3.60
2018-06-30T17:19:34.595Z,0.88
2018-06-30T17:22:03.307Z,2.17
2018-06-30T17:24:32.019Z,0.40
2018-06-30T17:27:00.833Z,3.80
2018-06-30T17:29:29.767Z,0.50
2018-06-30T17:31:58.730Z,0.60
2018-06-30T17:34:27.254Z,0.53
2018-06-30T17:36:55.937Z,1.75
2018-06-30T17:39:24.446Z,1.55
2018-06-30T17:41:53.191Z,1.47
2018-06-30T17:44:21.922Z,1.77
2018-06-30T17:46:50.671Z,0.70
2018-06-30T17:49:19.200Z,2.25
2018-06-30T17:51:48.147Z,0.50
2018-06-30T17:54:16.680Z,0.98
2018-06-30T17:56:45.255Z,1.50
2018-06-30T17:59:13.889Z,0.70
2018-06-30T18:01:42.764Z,2.27
2018-06-30T18:04:11.298Z,0.62
2018-06-30T18:06:40.105Z,1.72
2018-06-30T18:09:10.560Z,1.45
2018-06-30T18:11:39.422Z,1.45
2018-06-30T18:14:08.628Z,3.60
2018-06-30T18:16:37.204Z,1.20
2018-06-30T18:19:06.154Z,3.52
2018-06-30T18:21:35.216Z,2.03
2018-06-30T18:24:03.992Z,5.60
2018-06-30T18:26:32.802Z,1.95
2018-06-30T18:29:01.519Z,1.83
2018-06-30T18:31:30.303Z,1.73
2018-06-30T18:33:58.842Z,1.03
2018-06-30T18:36:27.408Z,1.97
2018-06-30T18:38:55.992Z,2.53
2018-06-30T18:41:24.795Z,1.43
2018-06-30T18:43:53.827Z,1.13
2018-06-30T18:46:22.564Z,1.60
2018-06-30T18:48:51.118Z,2.17
2018-06-30T18:51:19.829Z,0.90
2018-06-30T18:53:48.603Z,3.07
2018-06-30T18:56:17.567Z,3.17
2018-06-30T18:58:46.203Z,1.87
2018-06-30T19:01:14.956Z,1.20
2018-06-30T19:03:43.841Z,3.57
2018-06-30T19:06:12.594Z,4.70
2018-06-30T19:08:41.292Z,2.10
2018-06-30T19:11:10.286Z,1.27
2018-06-30T19:13:38.840Z,1.17
2018-06-30T19:16:07.467Z,1.30
2018-06-30T19:18:36.277Z,1.40
2018-06-30T19:21:05.029Z,0.77
2018-06-30T19:23:33.590Z,0.83
2018-06-30T19:26:02.294Z,2.60
2018-06-30T19:28:32.012Z,1.47
2018-06-30T19:31:00.590Z,3.17
2018-06-30T19:33:29.140Z,2.07
2018-06-30T19:35:57.392Z,2.50
2018-06-30T19:38:25.911Z,3.20
2018-06-30T19:40:54.841Z,5.33
2018-06-30T19:43:23.418Z,4.80
2018-06-30T19:45:51.963Z,3.83
2018-06-30T19:48:20.530Z,5.97
2018-06-30T19:50:49.271Z,5.70
2018-06-30T19:53:17.875Z,1.27
2018-06-30T19:55:46.613Z,2.90
2018-06-30T19:58:15.408Z,2.50
2018-06-30T20:00:44.139Z,1.30
2018-06-30T20:03:13.095Z,2.57
2018-06-30T20:05:42.033Z,1.37
2018-06-30T20:08:10.838Z,2.07
2018-06-30T20:10:39.912Z,1.70
2018-06-30T20:13:08.670Z,1.30
2018-06-30T20:15:37.419Z,2.87
2018-06-30T20:18:05.833Z,1.87
2018-06-30T20:20:34.416Z,4.80
2018-06-30T20:23:03.714Z,3.17
2018-06-30T20:25:32.345Z,3.70
2018-06-30T20:28:00.896Z,1.73
2018-06-30T20:30:29.446Z,4.33
2018-06-30T20:32:58.227Z,3.33
2018-06-30T20:35:27.030Z,2.93
2018-06-30T20:37:55.805Z,2.13
2018-06-30T20:40:24.497Z,1.90
2018-06-30T20:42:53.453Z,2.77
2018-06-30T20:45:22.473Z,2.03
2018-06-30T20:47:50.908Z,3.30
2018-06-30T20:50:19.656Z,2.53
2018-06-30T20:52:48.453Z,2.90
2018-06-30T20:55:17.319Z,2.80
2018-06-30T20:57:46.028Z,4.67
2018-06-30T21:00:14.620Z,4.37
2018-06-30T21:02:43.362Z,3.90
2018-06-30T21:05:12.011Z,3.17
2018-06-30T21:07:40.865Z,7.03
2018-06-30T21:10:09.713Z,2.43
2018-06-30T21:12:38.373Z,3.27
2018-06-30T21:15:07.312Z,2.17
2018-06-30T21:17:35.953Z,1.20
2018-06-30T21:20:05.418Z,1.53
2018-06-30T21:22:34.375Z,4.07
2018-06-30T21:25:04.233Z,2.67
2018-06-30T21:27:32.900Z,3.07
2018-06-30T21:30:01.976Z,2.53
2018-06-30T21:32:30.524Z,3.00
2018-06-30T21:34:59.338Z,2.90
2018-06-30T21:37:27.943Z,1.57
2018-06-30T21:39:56.625Z,4.57
2018-06-30T21:42:25.494Z,3.60
2018-06-30T21:44:54.733Z,1.67
2018-06-30T21:47:23.694Z,2.53
2018-06-30T21:49:52.354Z,2.13
2018-06-30T21:52:21.231Z,2.93
2018-06-30T21:54:49.760Z,3.60
2018-06-30T21:57:18.765Z,4.70
2018-06-30T21:59:47.347Z,3.37
2018-06-30T22:02:15.907Z,3.00
2018-06-30T22:04:44.579Z,3.00
2018-06-30T22:07:13.170Z,1.40
2018-06-30T22:09:42.129Z,3.93
2018-06-30T22:12:10.956Z,5.67
2018-06-30T22:14:39.679Z,4.87
2018-06-30T22:17:08.174Z,2.33
2018-06-30T22:19:36.949Z,1.70
2018-06-30T22:22:05.812Z,4.17
2018-06-30T22:24:34.484Z,3.60
2018-06-30T22:27:03.263Z,3.17
2018-06-30T22:29:32.305Z,8.27
2018-06-30T22:32:01.090Z,2.50
2018-06-30T22:34:29.589Z,1.30
2018-06-30T22:36:58.110Z,2.37
2018-06-30T22:40:35.515Z,1.73
2018-06-30T22:43:04.199Z,1.53
2018-06-30T22:45:32.971Z,3.40
2018-06-30T22:48:01.568Z,1.37
2018-06-30T22:50:29.934Z,2.17
2018-06-30T22:52:58.446Z,1.40
2018-06-30T22:55:27.049Z,2.20
2018-06-30T22:57:55.805Z,3.57
2018-06-30T23:00:24.924Z,1.37
2018-06-30T23:02:53.457Z,1.20
2018-06-30T23:05:22.098Z,3.13
2018-06-30T23:07:50.604Z,3.07
2018-06-30T23:10:19.194Z,3.13
2018-06-30T23:12:48.025Z,1.20
2018-06-30T23:15:16.308Z,3.90
2018-06-30T23:17:45.116Z,4.70
2018-06-30T23:20:13.795Z,3.30
2018-06-30T23:22:55.895Z,4.73
2018-06-30T23:25:26.013Z,2.30
2018-06-30T23:27:55.293Z,1.03
2018-06-30T23:30:24.519Z,1.00
2018-06-30T23:32:53.305Z,1.37
2018-06-30T23:35:23.608Z,3.40
2018-06-30T23:37:52.829Z,1.73
2018-06-30T23:40:21.592Z,1.23
2018-06-30T23:42:50.424Z,0.93
2018-06-30T23:45:19.555Z,2.63
2018-06-30T23:47:48.798Z,1.53
2018-06-30T23:50:17.383Z,1.03
2018-06-30T23:52:46.133Z,0.60
2018-06-30T23:55:14.752Z,0.87
2018-06-30T23:57:43.569Z,1.50
